Eos — FAD9780 — position and weather

sailwx.info

Track history (hours):
 
Tides and Currents Weather Stations Pressure Air Temp Water Temp Dewpoint Dewpoint Depression Visibility Wind Speed Wind Dir Waves Ship Positions

Eos

Last reported at 2017-Oct-07 15:01 UTC. Time now 2017-Nov-23 23:46 UTC.
Position N 27°50' W 015°20'.
Warning: this ship's position is 47 days out of date.

Length 12 m.

Type: Sailing vessel. MMSI: 227450730.

Date/timePositionNaut miles runAvg speedWind from/ knotsBaromVisibWave heightAir tempDewpointWater temp
2017-Oct-07 15:01N 27°50' W 015°20'0 6.1
2017-Oct-07 15:00N 27°50' W 015°20'3 6.2
2017-Oct-07 14:31N 27°52' W 015°17'3 6.2
2017-Oct-07 14:00N 27°53' W 015°14'3 5.4
2017-Oct-07 13:30N 27°54' W 015°11'3 5.7
2017-Oct-07 13:00N 27°54' W 015°08'3 5.9
2017-Oct-07 12:30N 27°55' W 015°05'3 6.0
2017-Oct-07 12:00N 27°56' W 015°02'3 6.3
2017-Oct-07 11:30N 27°57' W 014°58'3 6.2
2017-Oct-07 11:00N 27°58' W 014°55'3 6.2
2017-Oct-07 10:29N 27°58' W 014°51'3 6.3
2017-Oct-07 09:59N 27°59' W 014°48'3 5.9
2017-Oct-07 09:29N 27°60' W 014°45'3 6.3
2017-Oct-07 08:58N 28°01' W 014°41'73 1.6
2017-Oct-05 10:27N 28°52' W 013°42'3 6.2
2017-Oct-05 09:56N 28°54' W 013°39'2 5.4
2017-Oct-05 09:29N 28°55' W 013°37'3 6.2
2017-Oct-05 08:58N 28°56' W 013°34'2 2.4
2017-Oct-05 08:11N 28°58' W 013°32'0 0.1
2017-Oct-05 07:59N 28°58' W 013°32'0 0.0
2017-Oct-05 07:29N 28°58' W 013°32'0 0.0
2017-Oct-05 06:41N 28°58' W 013°32'0 0.0
2017-Oct-05 05:23N 28°58' W 013°32'0 0.1
2017-Oct-05 04:59N 28°58' W 013°32'0 0.0
2017-Oct-05 04:23N 28°58' W 013°32'0 0.0
2017-Oct-05 03:59N 28°58' W 013°32'0 0.0
2017-Oct-05 03:29N 28°58' W 013°32'0 0.0
2017-Oct-05 02:59N 28°58' W 013°32'0 0.0
2017-Oct-05 02:29N 28°58' W 013°32'0 0.0
2017-Oct-05 01:59N 28°58' W 013°32'0 0.0
2017-Oct-04 23:59N 28°58' W 013°32'0 0.0
2017-Oct-04 23:29N 28°58' W 013°32'0 0.0
2017-Oct-04 22:59N 28°58' W 013°32'0 0.0
2017-Oct-04 21:35N 28°58' W 013°32'0 0.0
2017-Oct-04 21:05N 28°58' W 013°32'0 0.0
2017-Oct-04 19:41N 28°58' W 013°32'0 0.0
2017-Oct-04 18:44N 28°58' W 013°32'0 0.0
2017-Oct-04 18:29N 28°58' W 013°32'0 0.0
2017-Oct-04 17:59N 28°58' W 013°32'0 0.0
2017-Oct-04 12:47N 28°58' W 013°32'0 0.0
2017-Oct-04 12:20N 28°58' W 013°32'0 0.0
2017-Oct-04 11:47N 28°58' W 013°32'0 0.0
2017-Oct-04 11:23N 28°58' W 013°32'0 0.0
2017-Oct-04 10:47N 28°58' W 013°32'0 0.0
2017-Oct-04 09:14N 28°58' W 013°32'0 0.0
2017-Oct-04 08:59N 28°58' W 013°32'0 0.0
2017-Oct-04 08:29N 28°58' W 013°32'0 0.0
2017-Oct-04 07:47N 28°58' W 013°32'0 0.0
2017-Oct-04 07:23N 28°58' W 013°32'0 0.0
2017-Oct-04 06:56N 28°58' W 013°32'0 0.0
2017-Oct-04 06:23N 28°58' W 013°32'0 0.0
2017-Oct-04 05:41N 28°58' W 013°32'0 0.0
2017-Oct-04 05:08N 28°58' W 013°32'0 0.0
2017-Oct-04 04:59N 28°58' W 013°32'0 0.0
2017-Oct-04 04:17N 28°58' W 013°32'0 0.0
2017-Oct-04 03:35N 28°58' W 013°32'0 0.0
2017-Oct-04 03:23N 28°58' W 013°32'0 0.0
2017-Oct-04 02:56N 28°58' W 013°32'0 0.0
2017-Oct-04 02:29N 28°58' W 013°32'0 0.0
2017-Oct-04 00:29N 28°58' W 013°32'0 0.0
2017-Oct-03 23:59N 28°58' W 013°32'0 0.0
2017-Oct-03 23:29N 28°58' W 013°32'0 0.0
2017-Oct-03 22:59N 28°58' W 013°32'0 0.0
2017-Oct-03 22:29N 28°58' W 013°32'0 0.0
2017-Oct-03 21:53N 28°58' W 013°32'0 0.0
2017-Oct-03 21:23N 28°58' W 013°32'0 0.0
2017-Oct-03 20:53N 28°58' W 013°32'0 0.0
2017-Oct-03 19:26N 28°58' W 013°32'0 0.0
2017-Oct-03 18:35N 28°58' W 013°32'0 0.1
2017-Oct-03 18:29N 28°58' W 013°32'0 0.0
2017-Oct-03 16:59N 28°58' W 013°32'0 0.0
2017-Oct-03 14:53N 28°58' W 013°32'0 0.0
2017-Oct-03 12:29N 28°58' W 013°32'0 0.0
2017-Oct-03 09:05N 28°58' W 013°32'0 0.1
2017-Oct-03 08:59N 28°58' W 013°32'0 0.0
2017-Oct-03 08:29N 28°58' W 013°32'0 0.0
2017-Oct-03 08:00N 28°58' W 013°32'0 0.3
2017-Oct-03 07:20N 28°58' W 013°32'0 0.0
2017-Oct-03 05:26N 28°58' W 013°32'0 0.0
2017-Oct-03 04:50N 28°58' W 013°32'0 0.0
2017-Oct-03 04:26N 28°58' W 013°32'0 0.0
2017-Oct-03 03:08N 28°58' W 013°32'0 0.0
2017-Oct-03 02:56N 28°58' W 013°32'0 0.0
2017-Oct-03 02:29N 28°58' W 013°32'0 0.0
2017-Oct-03 01:50N 28°58' W 013°32'0 0.0
2017-Oct-03 01:08N 28°58' W 013°32'0 0.0
2017-Oct-02 19:50N 28°58' W 013°32'0 0.0
2017-Oct-02 19:26N 28°58' W 013°32'0 0.0
2017-Oct-02 18:56N 28°58' W 013°32'0 0.0
2017-Oct-02 18:29N 28°58' W 013°32'0 0.0
2017-Oct-02 17:56N 28°58' W 013°32'0 0.0
2017-Oct-02 17:14N 28°58' W 013°32'0 0.0
2017-Oct-02 16:50N 28°58' W 013°32'0 0.0
2017-Oct-02 15:26N 28°58' W 013°32'0 0.0
2017-Oct-02 13:14N 28°58' W 013°32'0 0.0
2017-Oct-02 11:14N 28°58' W 013°32'0 0.0
2017-Oct-02 10:44N 28°58' W 013°32'0 0.0
2017-Oct-02 10:26N 28°58' W 013°32'0 0.0
2017-Oct-02 09:56N 28°58' W 013°32'0 0.0
2017-Oct-02 09:26N 28°58' W 013°32'0 0.0
2017-Oct-02 08:32N 28°58' W 013°32'0 0.0
2017-Oct-02 08:26N 28°58' W 013°32'0 0.0
2017-Oct-02 07:14N 28°58' W 013°32'0 0.0
2017-Oct-02 06:11N 28°58' W 013°32'0 0.0
2017-Oct-02 05:44N 28°58' W 013°32'0 0.0
2017-Oct-02 05:20N 28°58' W 013°32'0 0.0
2017-Oct-02 04:56N 28°58' W 013°32'0 0.0
2017-Oct-02 03:17N 28°58' W 013°32'0 0.0
2017-Oct-02 02:47N 28°58' W 013°32'0 0.0
2017-Oct-02 02:26N 28°58' W 013°32'0 0.0
2017-Oct-02 01:32N 28°58' W 013°32'0 0.0
2017-Oct-02 00:20N 28°58' W 013°32'0 0.0
2017-Oct-01 22:56N 28°58' W 013°32'0 0.0
2017-Oct-01 21:44N 28°58' W 013°32'0 0.0
2017-Oct-01 21:23N 28°58' W 013°32'0 0.0
2017-Oct-01 20:14N 28°58' W 013°32'0 0.0
2017-Oct-01 19:50N 28°58' W 013°32'0 0.0
2017-Oct-01 19:11N 28°58' W 013°32'0 0.0
2017-Oct-01 18:38N 28°58' W 013°32'0 0.0
2017-Oct-01 16:38N 28°58' W 013°32'0 0.0
2017-Oct-01 16:08N 28°58' W 013°32'0 0.0
2017-Oct-01 12:50N 28°58' W 013°32'0 0.0
2017-Oct-01 10:26N 28°58' W 013°32'0 0.0
2017-Oct-01 09:56N 28°58' W 013°32'0 0.0
2017-Oct-01 09:26N 28°58' W 013°32'0 0.0
2017-Oct-01 08:50N 28°58' W 013°32'0 0.0
2017-Oct-01 08:08N 28°58' W 013°32'0 0.0
2017-Oct-01 07:56N 28°58' W 013°32'0 0.0
2017-Oct-01 05:02N 28°58' W 013°32'0 0.0
2017-Oct-01 04:56N 28°58' W 013°32'0 0.0
2017-Oct-01 03:53N 28°58' W 013°32'0 0.0
2017-Sep-30 01:44N 28°58' W 013°32'0 0.0
2017-Sep-30 01:20N 28°58' W 013°32'0 0.0
2017-Sep-30 00:50N 28°58' W 013°32'0 0.0
2017-Sep-29 22:20N 28°58' W 013°32'0 0.0
2017-Sep-29 21:47N 28°58' W 013°32'0 0.0
2017-Sep-29 20:20N 28°58' W 013°32'0 0.0
2017-Sep-29 17:50N 28°58' W 013°32'0 0.0
2017-Sep-29 15:38N 28°58' W 013°32'0 0.0
2017-Sep-29 15:20N 28°58' W 013°32'0 0.0
2017-Sep-29 14:38N 28°58' W 013°32'0 0.0
2017-Sep-29 09:02N 28°58' W 013°32'0 0.0
2017-Sep-29 08:56N 28°58' W 013°32'0 0.0
2017-Sep-29 07:14N 28°58' W 013°32'0 0.0
2017-Sep-29 06:14N 28°58' W 013°32'0 0.0
2017-Sep-29 05:50N 28°58' W 013°32'0 0.0
2017-Sep-29 04:56N 28°58' W 013°32'0 0.0
2017-Sep-29 04:26N 28°58' W 013°32'0 0.0
2017-Sep-29 02:44N 28°58' W 013°32'0 0.0
2017-Sep-29 00:20N 28°58' W 013°32'0 0.0
2017-Sep-28 23:59N 28°58' W 013°32'0 0.0
2017-Sep-28 22:53N 28°58' W 013°32'0 0.0
2017-Sep-28 22:29N 28°58' W 013°32'0 0.0
2017-Sep-28 21:38N 28°58' W 013°32'0 0.0
2017-Sep-28 20:38N 28°58' W 013°32'0 0.0
2017-Sep-28 20:26N 28°58' W 013°32'0 0.0
2017-Sep-28 19:56N 28°58' W 013°32'0 0.0
2017-Sep-28 18:20N 28°58' W 013°32'0 0.0
2017-Sep-28 17:56N 28°58' W 013°32'0 0.0
2017-Sep-28 15:14N 28°58' W 013°32'0 0.0
2017-Sep-28 14:59N 28°58' W 013°32'0 0.0
2017-Sep-28 13:23N 28°58' W 013°32'0 0.0
2017-Sep-28 09:26N 28°58' W 013°32'0 0.0
2017-Sep-28 08:50N 28°58' W 013°32'0 0.0
2017-Sep-28 08:26N 28°58' W 013°32'0 0.0
2017-Sep-28 07:56N 28°58' W 013°32'0 0.0
2017-Sep-28 07:02N 28°58' W 013°32'0 0.0
2017-Sep-28 06:38N 28°58' W 013°32'0 0.0
2017-Sep-28 06:08N 28°58' W 013°32'0 0.0
2017-Sep-28 05:59N 28°58' W 013°32'0 0.0
2017-Sep-28 05:29N 28°58' W 013°32'0 0.0
2017-Sep-28 04:59N 28°58' W 013°32'0 0.0
2017-Sep-28 04:29N 28°58' W 013°32'0 0.0
2017-Sep-28 03:59N 28°58' W 013°32'0 0.0
2017-Sep-28 03:26N 28°58' W 013°32'0 0.0
2017-Sep-28 02:59N 28°58' W 013°32'0 0.0
2017-Sep-28 02:29N 28°58' W 013°32'0 0.0
2017-Sep-28 01:59N 28°58' W 013°32'0 0.0
2017-Sep-27 22:02N 28°58' W 013°32'0 0.0
2017-Sep-27 21:53N 28°58' W 013°32'  
Track history (hours):
 
Tides and Currents Weather Stations Pressure Air Temp Water Temp Dewpoint Dewpoint Depression Visibility Wind Speed Wind Dir Waves Ship Positions

Eos

Last reported at 2017-Oct-07 15:01 UTC. Time now 2017-Nov-23 23:46 UTC.
Position N 27°50' W 015°20'.
Warning: this ship's position is 47 days out of date.

Length 12 m.

Type: Sailing vessel. MMSI: 227450730.

Date/timePositionNaut miles runAvg speedWind from/ knotsBaromVisibWave heightAir tempDewpointWater temp
2017-Oct-07 15:01N 27°50' W 015°20'0 6.1
2017-Oct-07 15:00N 27°50' W 015°20'3 6.2
2017-Oct-07 14:31N 27°52' W 015°17'3 6.2
2017-Oct-07 14:00N 27°53' W 015°14'3 5.4
2017-Oct-07 13:30N 27°54' W 015°11'3 5.7
2017-Oct-07 13:00N 27°54' W 015°08'3 5.9
2017-Oct-07 12:30N 27°55' W 015°05'3 6.0
2017-Oct-07 12:00N 27°56' W 015°02'3 6.3
2017-Oct-07 11:30N 27°57' W 014°58'3 6.2
2017-Oct-07 11:00N 27°58' W 014°55'3 6.2
2017-Oct-07 10:29N 27°58' W 014°51'3 6.3
2017-Oct-07 09:59N 27°59' W 014°48'3 5.9
2017-Oct-07 09:29N 27°60' W 014°45'3 6.3
2017-Oct-07 08:58N 28°01' W 014°41'73 1.6
2017-Oct-05 10:27N 28°52' W 013°42'3 6.2
2017-Oct-05 09:56N 28°54' W 013°39'2 5.4
2017-Oct-05 09:29N 28°55' W 013°37'3 6.2
2017-Oct-05 08:58N 28°56' W 013°34'2 2.4
2017-Oct-05 08:11N 28°58' W 013°32'0 0.1
2017-Oct-05 07:59N 28°58' W 013°32'0 0.0
2017-Oct-05 07:29N 28°58' W 013°32'0 0.0
2017-Oct-05 06:41N 28°58' W 013°32'0 0.0
2017-Oct-05 05:23N 28°58' W 013°32'0 0.1
2017-Oct-05 04:59N 28°58' W 013°32'0 0.0
2017-Oct-05 04:23N 28°58' W 013°32'0 0.0
2017-Oct-05 03:59N 28°58' W 013°32'0 0.0
2017-Oct-05 03:29N 28°58' W 013°32'0 0.0
2017-Oct-05 02:59N 28°58' W 013°32'0 0.0
2017-Oct-05 02:29N 28°58' W 013°32'0 0.0
2017-Oct-05 01:59N 28°58' W 013°32'0 0.0
2017-Oct-04 23:59N 28°58' W 013°32'0 0.0
2017-Oct-04 23:29N 28°58' W 013°32'0 0.0
2017-Oct-04 22:59N 28°58' W 013°32'0 0.0
2017-Oct-04 21:35N 28°58' W 013°32'0 0.0
2017-Oct-04 21:05N 28°58' W 013°32'0 0.0
2017-Oct-04 19:41N 28°58' W 013°32'0 0.0
2017-Oct-04 18:44N 28°58' W 013°32'0 0.0
2017-Oct-04 18:29N 28°58' W 013°32'0 0.0
2017-Oct-04 17:59N 28°58' W 013°32'0 0.0
2017-Oct-04 12:47N 28°58' W 013°32'0 0.0
2017-Oct-04 12:20N 28°58' W 013°32'0 0.0
2017-Oct-04 11:47N 28°58' W 013°32'0 0.0
2017-Oct-04 11:23N 28°58' W 013°32'0 0.0
2017-Oct-04 10:47N 28°58' W 013°32'0 0.0
2017-Oct-04 09:14N 28°58' W 013°32'0 0.0
2017-Oct-04 08:59N 28°58' W 013°32'0 0.0
2017-Oct-04 08:29N 28°58' W 013°32'0 0.0
2017-Oct-04 07:47N 28°58' W 013°32'0 0.0
2017-Oct-04 07:23N 28°58' W 013°32'0 0.0
2017-Oct-04 06:56N 28°58' W 013°32'0 0.0
2017-Oct-04 06:23N 28°58' W 013°32'0 0.0
2017-Oct-04 05:41N 28°58' W 013°32'0 0.0
2017-Oct-04 05:08N 28°58' W 013°32'0 0.0
2017-Oct-04 04:59N 28°58' W 013°32'0 0.0
2017-Oct-04 04:17N 28°58' W 013°32'0 0.0
2017-Oct-04 03:35N 28°58' W 013°32'0 0.0
2017-Oct-04 03:23N 28°58' W 013°32'0 0.0
2017-Oct-04 02:56N 28°58' W 013°32'0 0.0
2017-Oct-04 02:29N 28°58' W 013°32'0 0.0
2017-Oct-04 00:29N 28°58' W 013°32'0 0.0
2017-Oct-03 23:59N 28°58' W 013°32'0 0.0
2017-Oct-03 23:29N 28°58' W 013°32'0 0.0
2017-Oct-03 22:59N 28°58' W 013°32'0 0.0
2017-Oct-03 22:29N 28°58' W 013°32'0 0.0
2017-Oct-03 21:53N 28°58' W 013°32'0 0.0
2017-Oct-03 21:23N 28°58' W 013°32'0 0.0
2017-Oct-03 20:53N 28°58' W 013°32'0 0.0
2017-Oct-03 19:26N 28°58' W 013°32'0 0.0
2017-Oct-03 18:35N 28°58' W 013°32'0 0.1
2017-Oct-03 18:29N 28°58' W 013°32'0 0.0
2017-Oct-03 16:59N 28°58' W 013°32'0 0.0
2017-Oct-03 14:53N 28°58' W 013°32'0 0.0
2017-Oct-03 12:29N 28°58' W 013°32'0 0.0
2017-Oct-03 09:05N 28°58' W 013°32'0 0.1
2017-Oct-03 08:59N 28°58' W 013°32'0 0.0
2017-Oct-03 08:29N 28°58' W 013°32'0 0.0
2017-Oct-03 08:00N 28°58' W 013°32'0 0.3
2017-Oct-03 07:20N 28°58' W 013°32'0 0.0
2017-Oct-03 05:26N 28°58' W 013°32'0 0.0
2017-Oct-03 04:50N 28°58' W 013°32'0 0.0
2017-Oct-03 04:26N 28°58' W 013°32'0 0.0
2017-Oct-03 03:08N 28°58' W 013°32'0 0.0
2017-Oct-03 02:56N 28°58' W 013°32'0 0.0
2017-Oct-03 02:29N 28°58' W 013°32'0 0.0
2017-Oct-03 01:50N 28°58' W 013°32'0 0.0
2017-Oct-03 01:08N 28°58' W 013°32'0 0.0
2017-Oct-02 19:50N 28°58' W 013°32'0 0.0
2017-Oct-02 19:26N 28°58' W 013°32'0 0.0
2017-Oct-02 18:56N 28°58' W 013°32'0 0.0
2017-Oct-02 18:29N 28°58' W 013°32'0 0.0
2017-Oct-02 17:56N 28°58' W 013°32'0 0.0
2017-Oct-02 17:14N 28°58' W 013°32'0 0.0
2017-Oct-02 16:50N 28°58' W 013°32'0 0.0
2017-Oct-02 15:26N 28°58' W 013°32'0 0.0
2017-Oct-02 13:14N 28°58' W 013°32'0 0.0
2017-Oct-02 11:14N 28°58' W 013°32'0 0.0
2017-Oct-02 10:44N 28°58' W 013°32'0 0.0
2017-Oct-02 10:26N 28°58' W 013°32'0 0.0
2017-Oct-02 09:56N 28°58' W 013°32'0 0.0
2017-Oct-02 09:26N 28°58' W 013°32'0 0.0
2017-Oct-02 08:32N 28°58' W 013°32'0 0.0
2017-Oct-02 08:26N 28°58' W 013°32'0 0.0
2017-Oct-02 07:14N 28°58' W 013°32'0 0.0
2017-Oct-02 06:11N 28°58' W 013°32'0 0.0
2017-Oct-02 05:44N 28°58' W 013°32'0 0.0
2017-Oct-02 05:20N 28°58' W 013°32'0 0.0
2017-Oct-02 04:56N 28°58' W 013°32'0 0.0
2017-Oct-02 03:17N 28°58' W 013°32'0 0.0
2017-Oct-02 02:47N 28°58' W 013°32'0 0.0
2017-Oct-02 02:26N 28°58' W 013°32'0 0.0
2017-Oct-02 01:32N 28°58' W 013°32'0 0.0
2017-Oct-02 00:20N 28°58' W 013°32'0 0.0
2017-Oct-01 22:56N 28°58' W 013°32'0 0.0
2017-Oct-01 21:44N 28°58' W 013°32'0 0.0
2017-Oct-01 21:23N 28°58' W 013°32'0 0.0
2017-Oct-01 20:14N 28°58' W 013°32'0 0.0
2017-Oct-01 19:50N 28°58' W 013°32'0 0.0
2017-Oct-01 19:11N 28°58' W 013°32'0 0.0
2017-Oct-01 18:38N 28°58' W 013°32'0 0.0
2017-Oct-01 16:38N 28°58' W 013°32'0 0.0
2017-Oct-01 16:08N 28°58' W 013°32'0 0.0
2017-Oct-01 12:50N 28°58' W 013°32'0 0.0
2017-Oct-01 10:26N 28°58' W 013°32'0 0.0
2017-Oct-01 09:56N 28°58' W 013°32'0 0.0
2017-Oct-01 09:26N 28°58' W 013°32'0 0.0
2017-Oct-01 08:50N 28°58' W 013°32'0 0.0
2017-Oct-01 08:08N 28°58' W 013°32'0 0.0
2017-Oct-01 07:56N 28°58' W 013°32'0 0.0
2017-Oct-01 05:02N 28°58' W 013°32'0 0.0
2017-Oct-01 04:56N 28°58' W 013°32'0 0.0
2017-Oct-01 03:53N 28°58' W 013°32'0 0.0
2017-Sep-30 01:44N 28°58' W 013°32'0 0.0
2017-Sep-30 01:20N 28°58' W 013°32'0 0.0
2017-Sep-30 00:50N 28°58' W 013°32'0 0.0
2017-Sep-29 22:20N 28°58' W 013°32'0 0.0
2017-Sep-29 21:47N 28°58' W 013°32'0 0.0
2017-Sep-29 20:20N 28°58' W 013°32'0 0.0
2017-Sep-29 17:50N 28°58' W 013°32'0 0.0
2017-Sep-29 15:38N 28°58' W 013°32'0 0.0
2017-Sep-29 15:20N 28°58' W 013°32'0 0.0
2017-Sep-29 14:38N 28°58' W 013°32'0 0.0
2017-Sep-29 09:02N 28°58' W 013°32'0 0.0
2017-Sep-29 08:56N 28°58' W 013°32'0 0.0
2017-Sep-29 07:14N 28°58' W 013°32'0 0.0
2017-Sep-29 06:14N 28°58' W 013°32'0 0.0
2017-Sep-29 05:50N 28°58' W 013°32'0 0.0
2017-Sep-29 04:56N 28°58' W 013°32'0 0.0
2017-Sep-29 04:26N 28°58' W 013°32'0 0.0
2017-Sep-29 02:44N 28°58' W 013°32'0 0.0
2017-Sep-29 00:20N 28°58' W 013°32'0 0.0
2017-Sep-28 23:59N 28°58' W 013°32'0 0.0
2017-Sep-28 22:53N 28°58' W 013°32'0 0.0
2017-Sep-28 22:29N 28°58' W 013°32'0 0.0
2017-Sep-28 21:38N 28°58' W 013°32'0 0.0
2017-Sep-28 20:38N 28°58' W 013°32'0 0.0
2017-Sep-28 20:26N 28°58' W 013°32'0 0.0
2017-Sep-28 19:56N 28°58' W 013°32'0 0.0
2017-Sep-28 18:20N 28°58' W 013°32'0 0.0
2017-Sep-28 17:56N 28°58' W 013°32'0 0.0
2017-Sep-28 15:14N 28°58' W 013°32'0 0.0
2017-Sep-28 14:59N 28°58' W 013°32'0 0.0
2017-Sep-28 13:23N 28°58' W 013°32'0 0.0
2017-Sep-28 09:26N 28°58' W 013°32'0 0.0
2017-Sep-28 08:50N 28°58' W 013°32'0 0.0
2017-Sep-28 08:26N 28°58' W 013°32'0 0.0
2017-Sep-28 07:56N 28°58' W 013°32'0 0.0
2017-Sep-28 07:02N 28°58' W 013°32'0 0.0
2017-Sep-28 06:38N 28°58' W 013°32'0 0.0
2017-Sep-28 06:08N 28°58' W 013°32'0 0.0
2017-Sep-28 05:59N 28°58' W 013°32'0 0.0
2017-Sep-28 05:29N 28°58' W 013°32'0 0.0
2017-Sep-28 04:59N 28°58' W 013°32'0 0.0
2017-Sep-28 04:29N 28°58' W 013°32'0 0.0
2017-Sep-28 03:59N 28°58' W 013°32'0 0.0
2017-Sep-28 03:26N 28°58' W 013°32'0 0.0
2017-Sep-28 02:59N 28°58' W 013°32'0 0.0
2017-Sep-28 02:29N 28°58' W 013°32'0 0.0
2017-Sep-28 01:59N 28°58' W 013°32'0 0.0
2017-Sep-27 22:02N 28°58' W 013°32'0 0.0
2017-Sep-27 21:53N 28°58' W 013°32'  

Dump ship's entire track history